Impacts TAF Board INFO
FOR SITUATIONAL AWARENESS. NOT TO BE USED FOR FLIGHT PLANNING PURPOSES.
IDs:

KSTL - St Louis/Lambert Int, MO, US

Issued at 2054 UTC 17 Dec 2017
Updated at 2114 UTC 17 Dec 2017
Potential Impact None Slight Moderate High
Time<<18/10Z 18/11Z 18/12Z 18/13Z 18/14Z 18/15Z 18/16Z 18/17Z 18/18Z 18/19Z 18/20Z 18/21Z 18/22Z>>
Type PRVL PRVL PRVL PRVL PRVL PRVL PRVL PRVL PRVL PRVL PRVL PRVL PRVL
VIS >6 >6 >6 >6 >6 >6 >6 >6 >6 >6 >6 >6 >6
CIG 15 15 15 15 15 15 15 15 25 25 -- -- --
Cover OVC OVC OVC OVC OVC OVC OVC OVC OVC OVC SCT SCT SCT
FltCat MVFR MVFR MVFR MVFR MVFR MVFR MVFR MVFR MVFR MVFR VFR VFR VFR
WX -- -- -- -- -- -- -- -- -- -- -- -- --
WDir 200 200 200 200 200 200 200 200 250 250 240 240 240
WSpd 5 5 5 5 5 5 5 5 6 6 7 7 7
WGst -- -- -- -- -- -- -- -- -- -- -- -- --

Raw TAF
KSTL 172054Z 1721/1824 20006KT P6SM BKN045
  FM172200 19006KT P6SM -DZ BKN025
  FM180300 20005KT P6SM OVC015
  FM181800 25006KT P6SM OVC025
  FM182000 24007KT P6SM SCT100


METAR Board
Radar Display
Forecast Discussion

FOR SITUATIONAL AWARENESS. NOT TO BE USED FOR FLIGHT PLANNING PURPOSES.